Glendale Springs, North Carolina
Current Conditions -  °F | °C
As of 4:55 AM on Wednesday 26 Nov 2014 (Local Time) from KGEV Reporting Station
Moderate Rain Moderate Rain  
Wind Chill: 34°   Ceiling: 2800
Heat Index: 34°   Visibility: 4mi
Dew Point: 33°   Wind: 3mph
Humidity: 98%   Direction: 350°N
Pressure: 29.92"   Gusts: NA
Location:  36.35°N, 81.38°W
Report Text: KGEV 260955Z AUTO 35003KT 4SM RA SCT021 OVC028 01/01 A2992 RMK AO2 P0012 T00090006
Loading
Personal Weather Stations






























Interactive Weather Map New forecast layout! Learn more

10-Day Weather Forecast

Advertisements
Track Severe Weather on mobile